WetterOnline ( http://www.wetteronline.de )

Wetter aktuell Kassel

Aktuelles Wetter: Schauenburg-Elgershausen (317m)

6-stündlich | Neueste Meldungen
Ortszeit Temperatur Wetter
Fr, 17.08. 8:00 18.4° C leicht bewölkt
Fr, 17.08. 2:00 21.1° C wolkig
Do, 16.08. 20:00 26.6° C leicht bewölkt
Do, 16.08. 14:00 25.1° C wolkenlos
Do, 16.08. 8:00 15.1° C wolkig
Do, 16.08. 2:00 13.8° C wolkig
Mi, 15.08. 20:00 20.7° C bedeckt
Mi, 15.08. 14:00 21.1° C bedeckt
Ortszeit Temperatur Wetter
Fr, 17.08. 8:30 18.8° C wolkig
Fr, 17.08. 8:20 18.8° C wolkig
Fr, 17.08. 8:10 19.0° C leicht bewölkt
Fr, 17.08. 8:00 18.4° C leicht bewölkt
Fr, 17.08. 7:50 18.4° C leicht bewölkt
Fr, 17.08. 7:40 18.1° C leicht bewölkt
Fr, 17.08. 7:30 16.8° C leicht bewölkt
Fr, 17.08. 7:00 15.9° C wolkig
Fr, 17.08. 6:30 16.3° C leicht bewölkt
Fr, 17.08. 6:00 16.0° C leicht bewölkt
Fr, 17.08. 5:30 16.4° C wolkig
Ortszeit Relative Feuchte Sichtweite
Fr, 17.08. 8:00 75% 14 km
Fr, 17.08. 2:00 60% 40 km
Do, 16.08. 20:00 39% -
Do, 16.08. 14:00 47% 21 km
Do, 16.08. 8:00 81% 19 km
Do, 16.08. 2:00 87% 30 km
Mi, 15.08. 20:00 57% 45 km
Mi, 15.08. 14:00 53% 30 km
Ortszeit Relative Feuchte Sichtweite
Fr, 17.08. 8:30 74% 15 km
Fr, 17.08. 8:20 74% -
Fr, 17.08. 8:10 73% -
Fr, 17.08. 8:00 75% 14 km
Fr, 17.08. 7:50 75% -
Fr, 17.08. 7:40 76% -
Fr, 17.08. 7:30 81% 12 km
Fr, 17.08. 7:00 85% 11 km
Fr, 17.08. 6:30 83% 12 km
Fr, 17.08. 6:00 83% 12 km
Fr, 17.08. 5:30 81% 14 km
Ortszeit Niederschlagsmenge Niederschlagsart
Fr, 17.08. 8:00 0.0 l/m2 in 12 Std. -
Fr, 17.08. 2:00 0.0 l/m2 in 6 Std. -
Do, 16.08. 20:00 0.0 l/m2 in 12 Std. -
Do, 16.08. 14:00 0.0 l/m2 in 6 Std. -
Do, 16.08. 8:00 0.0 l/m2 in 12 Std. -
Do, 16.08. 2:00 0.0 l/m2 in 6 Std. -
Mi, 15.08. 20:00 0.0 l/m2 in 12 Std. -
Mi, 15.08. 14:00 0.0 l/m2 in 6 Std. -
Ortszeit Niederschlagsmenge Niederschlagsart
Fr, 17.08. 8:30 0.0 l/m2 in 1 Std. -
Fr, 17.08. 8:20 keine Meldung -
Fr, 17.08. 8:10 keine Meldung -
Fr, 17.08. 8:00 0.0 l/m2 in 1 Std. -
Fr, 17.08. 7:50 keine Meldung -
Fr, 17.08. 7:40 keine Meldung -
Fr, 17.08. 7:30 0.0 l/m2 in 1 Std. -
Fr, 17.08. 7:00 0.0 l/m2 in 1 Std. -
Fr, 17.08. 6:30 0.0 l/m2 in 1 Std. -
Fr, 17.08. 6:00 0.0 l/m2 in 1 Std. -
Fr, 17.08. 5:30 0.0 l/m2 in 1 Std. -
Ortszeit Stärke Spitze Richtung
km/h Bft. km/h Grad Sektor
Fr, 17.08. 8:00 7 2 17 280° W
Fr, 17.08. 2:00 6 1 30 310° NW
Do, 16.08. 20:00 7 2 32 220° SW
Do, 16.08. 14:00 13 3 35 200° S
Do, 16.08. 8:00 0 0 7 - -
Do, 16.08. 2:00 6 1 11 320° NW
Mi, 15.08. 20:00 6 1 17 200° S
Mi, 15.08. 14:00 7 2 22 260° W
Ortszeit Stärke Spitze Richtung
km/h Bft. km/h Grad Sektor
Fr, 17.08. 8:30 7 2 14 290° W
Fr, 17.08. 8:20 7 2 - 290° W
Fr, 17.08. 8:10 7 2 - 290° W
Fr, 17.08. 8:00 7 2 6 280° W
Fr, 17.08. 7:50 - - - - -
Fr, 17.08. 7:40 - - - - -
Fr, 17.08. 7:30 2 1 6 250° W
Fr, 17.08. 7:00 4 1 11 310° NW
Fr, 17.08. 6:30 6 1 11 280° W
Fr, 17.08. 6:00 6 1 17 310° NW
Fr, 17.08. 5:30 11 2 18 300° NW
Ortszeit Untergrenze Bedeckung Gattung
total tief tief mittel hoch
Fr, 17.08. 8:00 8700 m 6/8 0/8 - - -
Fr, 17.08. 2:00 9000 m 8/8 0/8 - - -
Do, 16.08. 20:00 10500 m 6/8 0/8 - - -
Do, 16.08. 14:00 - 0/8 0/8 - - -
Do, 16.08. 8:00 1320 m 8/8 2/8 - - -
Do, 16.08. 2:00 10500 m 7/8 0/8 - - -
Mi, 15.08. 20:00 1410 m 8/8 8/8 - - -
Mi, 15.08. 14:00 1500 m 8/8 8/8 - - -
Ortszeit Bedeckungsgrad in Achtel und Wolkenuntergrenze
Fr, 17.08. 8:30 3(8700m) 4(9000m) 7(9000m)
Fr, 17.08. 8:20 3(8700m) 4(9000m) 7(9000m)
Fr, 17.08. 8:10 2(8700m) 5(9000m)
Fr, 17.08. 8:00 4(8700m) 5(9000m) 6(10500m)
Fr, 17.08. 7:50 4(8700m) 5(9000m) 6(10500m)
Fr, 17.08. 7:40 3(9000m) 4(9000m) 5(10500m)
Fr, 17.08. 7:30 3(9000m) 4(9000m) 6(10500m)
Fr, 17.08. 7:00 4(1800m) 6(9000m)
Fr, 17.08. 6:30 5(9000m) 5(10500m) 7(10500m)
Fr, 17.08. 6:00 1(2100m) 3(9000m)
Fr, 17.08. 5:30 5(8700m) 7(9000m) 7(9000m)
Ortszeit Luftdruck NN (hPa) Tendenz (hPa in 3 Std.)
Fr, 17.08. 8:00 1015 + 1,0
Fr, 17.08. 2:00 1014 - 0,1
Do, 16.08. 20:00 1013 - 0,8
Do, 16.08. 14:00 1015 - 1,4
Do, 16.08. 8:00 1019 - 0,4
Do, 16.08. 2:00 1020 - 0,2
Mi, 15.08. 20:00 1019 - 0,2
Mi, 15.08. 14:00 1019 - 0,4
Ortszeit Luftdruck NN (hPa) Tendenz (hPa in 3 Std.)
Fr, 17.08. 8:30 1015 + 1,2
Fr, 17.08. 8:20 1015 keine Meldung
Fr, 17.08. 8:10 1015 keine Meldung
Fr, 17.08. 8:00 1015 + 1,0
Fr, 17.08. 7:50 1015 keine Meldung
Fr, 17.08. 7:40 1015 keine Meldung
Fr, 17.08. 7:30 1015 + 0,7
Fr, 17.08. 7:00 1015 + 0,7
Fr, 17.08. 6:30 1015 + 0,4
Fr, 17.08. 6:00 1014 + 0,2
Fr, 17.08. 5:30 1014 - 0,1
Ortszeit Schneehöhe (cm)
Fr, 17.08. 8:00 -
Fr, 17.08. 2:00 -
Do, 16.08. 20:00 -
Do, 16.08. 14:00 -
Do, 16.08. 8:00 -
Do, 16.08. 2:00 -
Mi, 15.08. 20:00 -
Mi, 15.08. 14:00 -
Ortszeit Schneehöhe (cm)
Fr, 17.08. 8:30 -
Fr, 17.08. 8:20 -
Fr, 17.08. 8:10 -
Fr, 17.08. 8:00 -
Fr, 17.08. 7:50 -
Fr, 17.08. 7:40 -
Fr, 17.08. 7:30 -
Fr, 17.08. 7:00 -
Fr, 17.08. 6:30 -
Fr, 17.08. 6:00 -
Fr, 17.08. 5:30 -
Link zu dieser Seite / Seite empfehlen

Das Wetter in ...